createdAt,value
2022-09-17T00:01:58.526Z,59.30
2022-09-17T00:06:53.227Z,59.71
2022-09-17T00:11:46.648Z,59.93
2022-09-17T00:16:43.524Z,60.74
2022-09-17T00:21:36.867Z,61.21
2022-09-17T00:26:33.404Z,59.64
2022-09-17T00:31:27.798Z,59.54
2022-09-17T00:36:21.857Z,58.80
2022-09-17T00:41:15.054Z,58.59
2022-09-17T00:46:21.246Z,57.75
2022-09-17T00:51:19.740Z,57.49
2022-09-17T00:56:20.090Z,57.31
2022-09-17T01:01:15.271Z,57.66
2022-09-17T01:06:19.049Z,57.44
2022-09-17T01:11:30.406Z,57.21
2022-09-17T01:16:32.773Z,57.35
2022-09-17T01:21:43.416Z,57.42
2022-09-17T01:27:19.068Z,57.51
2022-09-17T01:32:20.289Z,57.83
2022-09-17T01:37:17.089Z,58.08
2022-09-17T01:42:18.913Z,59.03
2022-09-17T01:47:22.470Z,58.85
2022-09-17T01:52:17.002Z,58.88
2022-09-17T01:57:15.571Z,59.19
2022-09-17T02:02:14.723Z,58.79
2022-09-17T02:07:20.662Z,58.89
2022-09-17T02:12:22.335Z,58.53
2022-09-17T02:17:23.598Z,58.80
2022-09-17T02:22:25.258Z,58.03
2022-09-17T02:27:25.968Z,58.62
2022-09-17T02:32:19.251Z,58.89
2022-09-17T02:37:14.658Z,59.61
2022-09-17T02:42:25.210Z,59.86
2022-09-17T02:47:56.851Z,60.77
2022-09-17T02:53:03.191Z,61.38
2022-09-17T02:58:13.445Z,61.65
2022-09-17T03:03:13.886Z,62.58
2022-09-17T03:08:14.253Z,63.01
2022-09-17T03:13:16.444Z,63.15
2022-09-17T03:18:10.196Z,64.20
2022-09-17T03:23:03.374Z,65.40
2022-09-17T03:27:56.613Z,66.04
2022-09-17T03:32:51.163Z,66.96
2022-09-17T03:37:44.298Z,67.03
2022-09-17T03:42:37.536Z,67.42
2022-09-17T03:47:33.167Z,68.25
2022-09-17T03:52:27.712Z,68.09
2022-09-17T03:57:20.903Z,68.55
2022-09-17T04:02:14.193Z,68.53
2022-09-17T04:07:07.739Z,70.21
2022-09-17T04:12:22.320Z,69.48
2022-09-17T04:17:18.355Z,70.18
2022-09-17T04:22:11.638Z,71.12
2022-09-17T04:27:06.372Z,72.30
2022-09-17T04:31:59.589Z,73.75
2022-09-17T04:36:55.844Z,74.80
2022-09-17T04:41:49.074Z,73.07
2022-09-17T04:46:43.794Z,72.47
2022-09-17T04:51:41.344Z,72.85
2022-09-17T04:56:34.570Z,73.72
2022-09-17T05:01:27.821Z,73.32
2022-09-17T05:06:22.771Z,72.77
2022-09-17T05:11:16.059Z,73.02
2022-09-17T05:16:09.402Z,73.29
2022-09-17T05:21:02.697Z,73.82
2022-09-17T05:26:09.398Z,74.46
2022-09-17T05:31:09.773Z,74.56
2022-09-17T05:36:03.322Z,74.63
2022-09-17T05:40:56.629Z,74.48
2022-09-17T05:45:53.553Z,73.92
2022-09-17T05:50:47.184Z,70.65
2022-09-17T05:55:40.688Z,68.25
2022-09-17T06:00:34.078Z,66.94
2022-09-17T06:05:28.705Z,66.97
2022-09-17T06:10:22.046Z,65.70
2022-09-17T06:15:15.218Z,65.56
2022-09-17T06:20:09.806Z,64.51
2022-09-17T06:25:04.520Z,64.97
2022-09-17T06:29:57.654Z,65.08
2022-09-17T06:34:54.218Z,64.56
2022-09-17T06:39:47.687Z,64.95
2022-09-17T06:44:42.204Z,65.50
2022-09-17T06:49:35.441Z,65.41
2022-09-17T06:54:28.653Z,64.49
2022-09-17T06:59:24.811Z,65.26
2022-09-17T07:04:21.311Z,65.34
2022-09-17T07:09:29.333Z,65.24
2022-09-17T07:14:24.848Z,65.66
2022-09-17T07:19:19.518Z,64.84
2022-09-17T07:24:12.783Z,65.91
2022-09-17T07:29:06.091Z,65.11
2022-09-17T07:33:59.537Z,65.02
2022-09-17T07:38:56.435Z,65.40
2022-09-17T07:43:49.600Z,65.43
2022-09-17T07:48:43.028Z,65.74
2022-09-17T07:53:36.227Z,64.26
2022-09-17T07:58:34.418Z,64.67
2022-09-17T08:03:27.826Z,65.55
2022-09-17T08:08:21.487Z,65.09
2022-09-17T08:13:14.724Z,65.74
2022-09-17T08:18:09.278Z,64.84
2022-09-17T08:23:02.858Z,64.36
2022-09-17T08:27:56.760Z,64.49
2022-09-17T08:32:50.082Z,63.34
2022-09-17T08:37:44.887Z,63.07
2022-09-17T08:42:43.064Z,62.48
2022-09-17T08:47:38.656Z,61.94
2022-09-17T08:53:14.089Z,57.48
2022-09-17T09:01:00.685Z,54.66
2022-09-17T09:11:31.161Z,52.12
2022-09-17T09:16:27.242Z,52.67
2022-09-17T09:21:27.900Z,52.59
2022-09-17T09:26:25.332Z,53.66
2022-09-17T09:31:40.453Z,52.67
2022-09-17T09:36:35.186Z,52.42
2022-09-17T09:41:38.017Z,51.10
2022-09-17T09:46:48.292Z,52.60
2022-09-17T09:51:53.151Z,51.00
2022-09-17T09:56:59.388Z,51.12
2022-09-17T10:01:55.475Z,51.09
2022-09-17T10:06:51.799Z,50.33
2022-09-17T10:12:04.207Z,48.82
2022-09-17T10:17:24.221Z,45.76
2022-09-17T10:22:27.691Z,44.24
2022-09-17T10:27:24.458Z,44.27
2022-09-17T10:32:21.431Z,44.41
2022-09-17T10:37:35.504Z,44.01
2022-09-17T10:42:28.923Z,44.06
2022-09-17T10:47:26.614Z,43.75
2022-09-17T10:52:26.742Z,44.17
2022-09-17T10:57:33.271Z,44.42
2022-09-17T11:03:04.797Z,45.44
2022-09-17T11:08:26.688Z,46.11
2022-09-17T11:13:27.634Z,46.78
2022-09-17T11:18:40.792Z,46.78
2022-09-17T11:23:52.293Z,47.34
2022-09-17T11:28:59.057Z,47.38
2022-09-17T11:34:29.063Z,46.08
2022-09-17T11:39:28.673Z,46.03
2022-09-17T11:44:27.852Z,46.02
2022-09-17T11:49:28.908Z,46.38
2022-09-17T11:54:29.024Z,46.94
2022-09-17T11:59:31.721Z,47.52
2022-09-17T12:04:42.480Z,47.12
2022-09-17T12:09:39.980Z,47.29
2022-09-17T12:15:06.319Z,48.01
2022-09-17T12:20:07.749Z,50.88
2022-09-17T12:25:05.091Z,51.32
2022-09-17T12:30:11.219Z,52.64
2022-09-17T12:35:16.211Z,52.45
2022-09-17T12:40:22.996Z,53.47
2022-09-17T12:45:29.083Z,55.79
2022-09-17T12:50:37.683Z,57.41
2022-09-17T12:56:27.434Z,58.06
2022-09-17T13:01:29.910Z,59.19
2022-09-17T13:06:51.504Z,59.14
2022-09-17T13:12:11.355Z,59.28
2022-09-17T13:17:09.646Z,59.83
2022-09-17T13:22:07.360Z,59.09
2022-09-17T13:27:03.158Z,59.55
2022-09-17T13:31:58.707Z,58.42
2022-09-17T13:36:58.082Z,57.47
2022-09-17T13:42:05.893Z,58.38
2022-09-17T13:47:20.288Z,58.00
2022-09-17T13:52:16.407Z,56.52
2022-09-17T13:57:15.991Z,54.73
2022-09-17T14:02:37.794Z,54.44
2022-09-17T14:07:52.407Z,55.11
2022-09-17T14:12:55.612Z,56.60
2022-09-17T14:17:54.509Z,56.68
2022-09-17T14:23:04.559Z,56.48
2022-09-17T14:28:08.414Z,55.62
2022-09-17T14:33:09.852Z,54.72
2022-09-17T14:38:12.774Z,54.69
2022-09-17T14:43:07.159Z,55.90
2022-09-17T14:48:29.827Z,55.61
2022-09-17T14:53:25.767Z,54.83
2022-09-17T14:58:42.273Z,54.73
2022-09-17T15:03:36.499Z,54.89
2022-09-17T15:08:32.130Z,56.01
2022-09-17T15:13:29.131Z,56.99
2022-09-17T15:18:31.979Z,58.00
2022-09-17T15:23:29.059Z,58.53
2022-09-17T15:28:31.641Z,59.61
2022-09-17T15:33:25.835Z,59.92
2022-09-17T15:38:55.218Z,60.06
2022-09-17T15:43:54.726Z,60.67
2022-09-17T15:48:54.525Z,61.06
2022-09-17T15:53:53.774Z,61.53
2022-09-17T15:58:59.200Z,61.27
2022-09-17T16:04:33.528Z,61.16
2022-09-17T16:09:55.135Z,61.90
2022-09-17T16:14:57.192Z,61.95
2022-09-17T16:19:50.358Z,62.87
2022-09-17T16:24:43.682Z,62.95
2022-09-17T16:29:40.027Z,64.00
2022-09-17T16:34:36.469Z,63.79
2022-09-17T16:39:29.778Z,63.77
2022-09-17T16:44:22.923Z,64.50
2022-09-17T16:49:16.185Z,64.39
2022-09-17T16:54:20.193Z,64.69
2022-09-17T16:59:13.396Z,64.21
2022-09-17T17:04:06.728Z,65.11
2022-09-17T17:09:03.590Z,65.20
2022-09-17T17:13:58.197Z,65.05
2022-09-17T17:18:53.404Z,65.33
2022-09-17T17:23:49.186Z,65.39
2022-09-17T17:28:44.952Z,66.38
2022-09-17T17:33:39.770Z,66.35
2022-09-17T17:38:35.433Z,66.47
2022-09-17T17:43:28.713Z,66.73
2022-09-17T17:48:21.835Z,67.28
2022-09-17T17:53:20.282Z,67.70
2022-09-17T17:58:13.506Z,68.72
2022-09-17T18:03:06.773Z,70.02
2022-09-17T18:08:00.010Z,70.18
2022-09-17T18:12:55.150Z,71.12
2022-09-17T18:17:53.596Z,71.58
2022-09-17T18:22:48.079Z,72.23
2022-09-17T18:27:47.611Z,72.56
2022-09-17T18:32:42.910Z,72.48
2022-09-17T18:37:36.183Z,72.62
2022-09-17T18:42:29.402Z,72.62
2022-09-17T18:47:24.190Z,72.59
2022-09-17T18:52:20.224Z,72.85
2022-09-17T18:57:13.487Z,72.25
2022-09-17T19:02:07.075Z,72.29
2022-09-17T19:07:02.325Z,72.27
2022-09-17T19:11:55.781Z,71.71
2022-09-17T19:16:52.153Z,70.99
2022-09-17T19:21:45.646Z,70.51
2022-09-17T19:26:43.645Z,70.54
2022-09-17T19:31:39.138Z,70.12
2022-09-17T19:36:32.496Z,69.95
2022-09-17T19:41:26.426Z,69.68
2022-09-17T19:46:24.647Z,69.60
2022-09-17T19:51:20.970Z,69.82
2022-09-17T19:56:16.395Z,69.46
2022-09-17T20:01:10.038Z,69.46
2022-09-17T20:06:08.308Z,69.82
2022-09-17T20:11:08.133Z,69.95
2022-09-17T20:16:05.181Z,70.42
2022-09-17T20:20:58.663Z,70.25
2022-09-17T20:25:56.876Z,70.14
2022-09-17T20:30:50.269Z,70.11
2022-09-17T20:35:43.462Z,70.56
2022-09-17T20:40:36.813Z,70.65
2022-09-17T20:45:31.754Z,70.68
2022-09-17T20:50:24.991Z,71.11
2022-09-17T20:55:18.463Z,70.84
2022-09-17T21:00:19.187Z,71.05
2022-09-17T21:05:14.129Z,70.81
2022-09-17T21:10:08.684Z,70.70
2022-09-17T21:15:02.082Z,70.87
2022-09-17T21:19:55.357Z,71.13
2022-09-17T21:24:49.987Z,71.28
2022-09-17T21:29:43.285Z,71.78
2022-09-17T21:34:36.518Z,71.25
2022-09-17T21:39:30.006Z,71.26
2022-09-17T21:44:24.601Z,71.46
2022-09-17T21:49:18.540Z,71.42
2022-09-17T21:54:13.488Z,71.55
2022-09-17T21:59:08.068Z,71.45
2022-09-17T22:04:03.322Z,71.72
2022-09-17T22:08:57.594Z,71.75
2022-09-17T22:13:54.805Z,71.95
2022-09-17T22:18:50.022Z,71.65
2022-09-17T22:23:44.891Z,71.40
2022-09-17T22:28:38.188Z,71.27
2022-09-17T22:33:34.005Z,71.21
2022-09-17T22:38:27.779Z,70.93
2022-09-17T22:43:22.664Z,70.73
2022-09-17T22:48:15.880Z,70.74
2022-09-17T22:53:09.048Z,70.63
2022-09-17T22:58:02.388Z,70.48
2022-09-17T23:02:57.070Z,70.36
2022-09-17T23:07:50.277Z,70.57
2022-09-17T23:12:43.492Z,70.45
2022-09-17T23:17:36.823Z,70.52
2022-09-17T23:22:31.510Z,70.60
2022-09-17T23:27:26.746Z,70.42
2022-09-17T23:32:20.134Z,70.12
2022-09-17T23:37:13.349Z,70.50
2022-09-17T23:42:08.129Z,70.19
2022-09-17T23:47:01.284Z,70.06
2022-09-17T23:51:54.471Z,70.32
2022-09-17T23:56:47.698Z,70.39
